Aérodrome :
LOGIN :

S'inscrire | Disclaimer

   EN    FR    IT 

 










Légende :    VFR   VFR Marginal   IFR   IFR Intensif   IFR Très Intensif
Visi : 
Plafond : 
>= 8 km
>= 3000ft
5 à 8 km
1000 à 3000 ft
1500m à 5 km
500 à 1000 ft
800 à 1500m
200 à 500 ft
< 800m
< 200 ft
Symboles :   Orages  Brouillard  Fortes neiges  Fortes précipitations  Vent > 20 kt
SIGMETs :   Divers  Orages  Givrage  Turbulence  Onde Orograph.  Cendres Volcan.







- Altitude de l'aérodrome : 622 ft
- Code IATA : BRS
- Voir les cartes d'approche


EGGD - Bristol Int.

DERNIER METAR :
  • 210050Z AUTO 19011KT 160V230 9999 BKN015 13/11 Q1000

METARs EXPIRÉS :
  • 210020Z AUTO 19011KT 9999 FEW018 12/11 Q1000
  • 202350Z AUTO 21013KT 9999 NCD 13/11 Q1000
  • 202320Z AUTO 20012KT 9999 FEW006 BKN033 13/12 Q1000 RERA
  • 202250Z AUTO 18017G27KT 1900 +RA OVC003/// //////TCU 14/14 Q1000 REDZ
  • 202220Z AUTO 18016KT 9999 -RA BKN005/// BKN009/// //////CB 14/14 Q1000 RERA REDZ
  • 202150Z AUTO 17018KT 4400 RADZ BKN005/// OVC027/// //////TCU 13/13 Q1000

TAF TAF EGGD
Valide du 21 à 00h jusqu'au 22 à 00h UTC


202300Z 2100/2124 22014KT 9999 SCT018
TEMPO 2100/2106 19015G25KT
TEMPO 2101/2124 5000 SHRA BKN010
PROB40
TEMPO 2104/2106 19020G35KT
BECMG 2106/2109 23020G33KT
TEMPO 2109/2118 24026G45KT
PROB40
TEMPO 2110/2117 2500 +SHRA BKN006 BKN015CB
ATIS : +44 1275 473 666
Pas de NOTAMs connus pour ce terrain.
1 SIGMET publié pour la FIR London (EGTT) :
 
Turbulence forte
EGTT SIGMET 08 VALID 202200/210200 EGRR
EGTT LONDON FIR SEV TURB FCST W OF LINE N5132 W00700 - N4902 W00700 SFC/FL060 MOV E 20KT INTSF=



MET'MAP, la Météo Aéronautique d'un coup d'oeil ! - Copyright ORBIFLY Décembre 2007 - Disclaimer

ORBIFLY MET'MAP TEAM :

Programmation & Développement : Alexandra Zaïnal
Conception & Développement : Baudouin d'Aumeries
Co-Programmation & Développement : Marc-Olivier Méhu
Soutien technique & logistique : Manuel Goepfert

Contact : metmap@orbifly.com




SOURCES & CREDITS :

   NOAA